»·PEaware :: N891SM KLAX-KSAN

N891SM :: KLAX-KSAN

FLIGHT INFORMATION

Flight Status: Arrived
Operator: Privately registered:
United States
More flights under this callsign
Pilot: Chris H. (14545)
Aircraft: CESSNA 172 SKYHAWK
(C172)
More flights by this aircraft type
Origin: KLAX Los Angeles Intl
United States
Destination: KSAN San Diego Intl-Lindbergh
United States
More flights between these airports :: More routes between these airports
Route: +
File this flight plan on PilotEdge
Remarks:
Altitude:
(Current/Filed)
0ft
Speed:
(Current/Filed)
0kts
Departed: 30-Sep-17 11:28 AM
Arrived: 30-Sep-17 12:39 PM
Distance/Time
Traveled:
95nm/1:11
Distance/Time
To Go:
Arrived

Flight Plot

Page will automatically refresh every two minutes.


Map Options




Map Legend


Flown Route
Filed Route
Departure Airport
Arrival Airport
Navaid (VOR, NDB)
Fix

Horizontal Profiles

Position Reports

Time Latitude Longitude Heading Altitude Ground
Speed
30-Sep-17 11:19 33.932735 -118.399128 21 107ft 0kts
30-Sep-17 11:20 33.932735 -118.399127 21 107ft 0kts
30-Sep-17 11:21 33.932735 -118.399127 21 107ft 0kts
30-Sep-17 11:22 33.932735 -118.399127 21 107ft 0kts
30-Sep-17 11:23 33.932735 -118.399127 21 107ft 0kts
30-Sep-17 11:24 33.932735 -118.399127 21 107ft 0kts
30-Sep-17 11:25 33.932735 -118.399127 21 107ft 0kts
30-Sep-17 11:26 33.932735 -118.399127 21 107ft 0kts
30-Sep-17 11:27 33.932920 -118.399048 18 107ft 8kts
30-Sep-17 11:28 33.934910 -118.394678 81 106ft 22kts
30-Sep-17 11:29 33.935707 -118.386925 83 107ft 24kts
30-Sep-17 11:30 33.936552 -118.382768 349 107ft 0kts
30-Sep-17 11:31 33.936552 -118.382768 349 107ft 0kts
30-Sep-17 11:32 33.936162 -118.395627 262 348ft 81kts
30-Sep-17 11:33 33.933482 -118.426177 265 1140ft 102kts
30-Sep-17 11:34 33.931391 -118.459131 265 1649ft 100kts
30-Sep-17 11:35 33.929274 -118.492299 265 1953ft 95kts
30-Sep-17 11:36 33.927336 -118.522664 265 2242ft 88kts
30-Sep-17 11:37 33.915638 -118.541349 174 2631ft 84kts
30-Sep-17 11:38 33.890647 -118.537511 172 3014ft 95kts
30-Sep-17 11:39 33.860850 -118.532860 172 2983ft 113kts
30-Sep-17 11:40 33.830814 -118.528151 172 2982ft 105kts
30-Sep-17 11:41 33.802385 -118.521925 138 2979ft 104kts
30-Sep-17 11:42 33.786477 -118.492298 122 2984ft 105kts
30-Sep-17 11:43 33.770922 -118.462424 122 3003ft 108kts
30-Sep-17 11:44 33.754692 -118.433233 129 3102ft 96kts
30-Sep-17 11:45 33.738511 -118.408879 128 3652ft 92kts
30-Sep-17 11:46 33.721947 -118.384257 129 4200ft 96kts
30-Sep-17 11:47 33.704961 -118.359156 129 4757ft 96kts
30-Sep-17 11:48 33.688180 -118.334417 129 5256ft 95kts
30-Sep-17 11:49 33.673117 -118.311954 131 5717ft 92kts
30-Sep-17 11:50 33.657589 -118.289095 136 6209ft 86kts
30-Sep-17 11:51 33.645183 -118.270989 137 6618ft 83kts
30-Sep-17 11:52 33.629545 -118.249015 119 7086ft 96kts
30-Sep-17 11:53 33.607271 -118.215464 123 7483ft 119kts
30-Sep-17 11:54 33.588700 -118.188149 124 7508ft 128kts
30-Sep-17 11:55 33.566402 -118.155601 124 7509ft 125kts
30-Sep-17 11:56 33.544414 -118.123442 124 7510ft 124kts
30-Sep-17 11:57 33.522546 -118.091478 123 7509ft 124kts
30-Sep-17 11:58 33.501000 -118.059181 135 7509ft 125kts
30-Sep-17 11:59 33.478814 -118.027279 135 7509ft 123kts
30-Sep-17 12:00 33.457175 -117.995884 136 7509ft 121kts
30-Sep-17 12:01 33.435861 -117.964886 136 7508ft 119kts
30-Sep-17 12:02 33.414774 -117.934229 136 7511ft 119kts
30-Sep-17 12:03 33.393725 -117.903615 136 7512ft 119kts
30-Sep-17 12:04 33.372515 -117.872785 136 7513ft 120kts
30-Sep-17 12:05 33.351366 -117.842065 136 7514ft 120kts
30-Sep-17 12:06 33.330166 -117.811303 136 7515ft 120kts
30-Sep-17 12:07 33.308944 -117.780532 136 7517ft 120kts
30-Sep-17 12:08 33.287619 -117.749628 136 7518ft 120kts
30-Sep-17 12:09 33.267242 -117.715573 131 7177ft 129kts
30-Sep-17 12:10 33.246719 -117.680973 131 6680ft 127kts
30-Sep-17 12:11 33.226923 -117.647589 131 6331ft 119kts
30-Sep-17 12:12 33.207922 -117.615629 131 6030ft 117kts
30-Sep-17 12:13 33.189042 -117.583910 131 5731ft 117kts
30-Sep-17 12:14 33.170070 -117.552057 130 5493ft 114kts
30-Sep-17 12:15 33.152272 -117.522170 129 5497ft 110kts
30-Sep-17 12:16 33.133856 -117.491535 128 5496ft 115kts
30-Sep-17 12:17 33.114994 -117.460105 126 5494ft 117kts
30-Sep-17 12:18 33.096130 -117.428519 125 5493ft 116kts
30-Sep-17 12:19 33.077730 -117.397704 124 5492ft 113kts
30-Sep-17 12:20 33.059688 -117.367280 130 5490ft 112kts
30-Sep-17 12:21 33.042444 -117.338643 130 5488ft 111kts
30-Sep-17 12:22 33.016431 -117.323346 166 5260ft 101kts
30-Sep-17 12:23 32.992645 -117.313154 167 4699ft 80kts
30-Sep-17 12:24 32.971614 -117.304383 167 4041ft 82kts
30-Sep-17 12:25 32.950190 -117.296162 167 3498ft 75kts
30-Sep-17 12:26 32.928917 -117.287638 166 3511ft 87kts
30-Sep-17 12:27 32.905264 -117.278013 166 3507ft 91kts
30-Sep-17 12:28 32.881258 -117.268223 166 3508ft 91kts
30-Sep-17 12:29 32.857112 -117.258390 165 3509ft 92kts
30-Sep-17 12:30 32.832474 -117.247962 163 3450ft 95kts
30-Sep-17 12:31 32.808716 -117.237562 164 3109ft 89kts
30-Sep-17 12:32 32.786487 -117.228547 165 2605ft 83kts
30-Sep-17 12:33 32.762737 -117.216416 155 1740ft 100kts
30-Sep-17 12:34 32.746213 -117.193292 114 1033ft 82kts
30-Sep-17 12:35 32.738847 -117.172379 120 868ft 71kts
30-Sep-17 12:36 32.727283 -117.156048 201 1087ft 74kts
30-Sep-17 12:37 32.731760 -117.181905 281 157ft 78kts
30-Sep-17 12:38 32.738148 -117.206032 282 729ft 88kts
30-Sep-17 12:39 32.728199 -117.224164 193 1260ft 86kts
30-Sep-17 12:40 32.719707 -117.196233 111 1363ft 95kts
30-Sep-17 12:41 32.710910 -117.166895 98 1185ft 99kts
30-Sep-17 12:42 32.727607 -117.163298 271 810ft 89kts
30-Sep-17 12:43 32.732679 -117.186324 288 17ft 22kts
30-Sep-17 12:44 32.734106 -117.187189 107 17ft 18kts
30-Sep-17 12:45 32.732121 -117.178966 108 21ft 36kts

Navigation Log

Ident Type
1. KLAX Airport
2. KSAN Airport